Time;durP1;ratioP1;P1;durP2;ratioP2;P2;SDS_P1;SDS_P2;PMS_P1;PMS_P2;Temp;Humidity;BMP_temperature;BMP_pressure;BME280_temperature;BME280_humidity;BME280_pressure;Samples;Min_cycle;Max_cycle;Signal;HPM_P1;HPM_P2
2023/06/02 00:02:29;;;;;;;10.80;4.25;;;;;;;10.22;70.40;102096.00;4877974;29;20036;-73
2023/06/02 00:04:57;;;;;;;10.18;4.20;;;;;;;10.20;70.14;102100.31;4848879;29;20102;-74
2023/06/02 00:07:25;;;;;;;11.45;4.50;;;;;;;10.18;70.44;102094.22;4845750;29;20144;-73
2023/06/02 00:09:51;;;;;;;8.05;3.63;;;;;;;10.19;70.28;102098.59;4861466;29;20037;-73
2023/06/02 00:12:17;;;;;;;8.60;3.75;;;;;;;10.19;70.56;102098.59;4857152;29;20036;-73
2023/06/02 00:14:42;;;;;;;11.43;4.25;;;;;;;10.19;70.35;102099.47;4844211;29;20030;-73
2023/06/02 00:17:10;;;;;;;8.85;3.55;;;;;;;10.14;70.93;102089.81;4843870;29;20402;-72
2023/06/02 00:19:42;;;;;;;10.82;4.15;;;;;;;10.16;70.18;102093.34;4859284;29;20037;-73
2023/06/02 00:22:15;;;;;;;7.28;3.58;;;;;;;10.13;70.04;102088.03;4828906;29;20035;-73
2023/06/02 00:24:41;;;;;;;10.50;3.95;;;;;;;10.09;70.67;102088.91;4855477;29;20033;-73
2023/06/02 00:27:09;;;;;;;9.55;4.20;;;;;;;10.06;70.01;102084.50;4846674;29;20040;-73
2023/06/02 00:29:35;;;;;;;11.73;3.78;;;;;;;10.10;70.27;102094.16;4847336;29;20049;-73
2023/06/02 00:32:01;;;;;;;12.20;3.90;;;;;;;10.08;69.57;102089.75;4863385;29;20129;-73
2023/06/02 00:34:27;;;;;;;9.10;4.07;;;;;;;10.05;69.86;102091.47;4862168;29;20092;-73
2023/06/02 00:36:52;;;;;;;12.57;4.82;;;;;;;10.01;69.53;102101.88;4861633;29;20114;-74
2023/06/02 00:39:18;;;;;;;11.35;3.95;;;;;;;10.00;69.17;102106.25;4861420;29;20470;-71
2023/06/02 00:41:45;;;;;;;9.23;3.70;;;;;;;9.93;68.58;102088.72;4861570;29;20096;-71
2023/06/02 00:44:10;;;;;;;9.43;3.85;;;;;;;9.93;68.79;102086.09;4871608;29;20081;-71
2023/06/02 00:46:36;;;;;;;12.32;4.00;;;;;;;9.92;68.71;102086.09;4858619;29;20034;-70
2023/06/02 00:49:03;;;;;;;11.95;4.65;;;;;;;9.89;68.33;102098.28;4873822;29;20033;-71
2023/06/02 00:51:29;;;;;;;13.98;4.18;;;;;;;9.86;68.67;102089.53;4861332;29;20533;-70
2023/06/02 00:53:55;;;;;;;14.75;4.28;;;;;;;9.80;68.59;102092.94;4861678;29;20120;-71
2023/06/02 00:56:23;;;;;;;10.70;3.85;;;;;;;9.75;69.01;102085.91;4876779;29;20079;-71
2023/06/02 00:58:49;;;;;;;10.70;3.50;;;;;;;9.76;68.51;102087.66;4846466;29;20096;-71
2023/06/02 01:01:18;;;;;;;9.25;3.83;;;;;;;9.76;68.60;102087.66;4876974;29;20040;-71
2023/06/02 01:03:47;;;;;;;13.23;3.78;;;;;;;9.74;68.02;102091.97;4857079;29;20038;-71
2023/06/02 01:06:15;;;;;;;13.32;3.95;;;;;;;9.71;68.54;102093.72;4858291;29;20044;-71
2023/06/02 01:08:43;;;;;;;11.52;3.97;;;;;;;9.73;68.45;102087.63;4858722;29;20092;-70
2023/06/02 01:11:09;;;;;;;13.18;4.35;;;;;;;9.71;68.45;102096.34;4858167;29;20432;-71
2023/06/02 01:13:35;;;;;;;15.23;3.80;;;;;;;9.69;68.34;102094.56;4872850;29;20161;-70
2023/06/02 01:16:01;;;;;;;11.90;3.42;;;;;;;9.76;68.60;102090.28;4876488;29;20193;-70
2023/06/02 01:18:29;;;;;;;12.13;4.15;;;;;;;9.76;68.63;102096.38;4861601;29;20044;-70
2023/06/02 01:20:59;;;;;;;12.80;3.75;;;;;;;9.79;68.78;102106.00;4861494;29;20504;-70
2023/06/02 01:23:32;;;;;;;11.15;4.15;;;;;;;9.77;69.50;102092.91;4878456;29;20401;-70
2023/06/02 01:25:57;;;;;;;13.68;3.88;;;;;;;9.80;69.46;102092.06;4861338;29;20450;-70
2023/06/02 01:28:23;;;;;;;10.73;3.47;;;;;;;9.79;68.69;102082.47;4861232;29;20033;-70
2023/06/02 01:30:52;;;;;;;16.30;4.15;;;;;;;9.83;69.03;102092.09;4860650;29;20132;-71
2023/06/02 01:33:36;;;;;;;14.43;3.25;;;;;;;9.81;68.54;102093.81;4875983;29;20053;-70
2023/06/02 01:36:02;;;;;;;12.18;3.80;;;;;;;9.83;68.54;102084.25;4876561;29;20047;-70
2023/06/02 01:38:30;;;;;;;11.95;3.42;;;;;;;9.86;69.27;102089.53;4860512;29;20501;-70
2023/06/02 01:41:02;;;;;;;12.23;4.40;;;;;;;9.80;69.51;102086.84;4860215;29;20040;-70
2023/06/02 01:43:29;;;;;;;12.68;4.13;;;;;;;9.87;68.58;102079.06;4875960;29;20339;-70
2023/06/02 01:45:56;;;;;;;13.73;3.95;;;;;;;9.83;68.91;102085.13;4850206;29;20056;-70
2023/06/02 01:48:21;;;;;;;12.05;3.65;;;;;;;9.88;68.30;102087.78;4860668;29;20490;-70
2023/06/02 01:50:47;;;;;;;11.57;3.75;;;;;;;9.87;68.95;102080.81;4844771;29;20076;-70
2023/06/02 01:53:12;;;;;;;16.73;4.47;;;;;;;9.89;68.54;102074.69;4868358;29;20029;-70
2023/06/02 01:55:39;;;;;;;9.13;3.53;;;;;;;9.86;69.00;102071.19;4863425;29;20037;-71
2023/06/02 01:58:04;;;;;;;15.90;4.07;;;;;;;9.89;68.77;102068.59;4863610;29;20393;-71
2023/06/02 02:00:30;;;;;;;12.00;3.55;;;;;;;9.89;68.37;102074.69;4862240;29;20029;-71
2023/06/02 02:02:57;;;;;;;13.00;4.28;;;;;;;9.88;69.00;102074.69;4863649;29;20041;-70
2023/06/02 02:05:23;;;;;;;17.27;4.60;;;;;;;9.87;68.85;102075.56;4863700;29;20033;-70
2023/06/02 02:07:50;;;;;;;11.63;4.00;;;;;;;9.93;68.56;102072.13;4862951;29;20033;-71
2023/06/02 02:10:16;;;;;;;9.45;3.47;;;;;;;9.91;68.84;102072.09;4848804;29;20033;-71
2023/06/02 02:12:42;;;;;;;12.82;4.63;;;;;;;9.85;69.83;102070.28;4877927;29;20040;-70
2023/06/02 02:15:10;;;;;;;12.32;4.00;;;;;;;9.85;69.47;102082.50;4863125;29;20093;-70
2023/06/02 02:17:44;;;;;;;15.05;4.43;;;;;;;9.88;68.72;102086.06;4847946;29;20442;-71
2023/06/02 02:20:16;;;;;;;13.07;3.92;;;;;;;9.86;68.98;102089.53;4878803;29;20025;-71
2023/06/02 02:22:41;;;;;;;10.32;4.60;;;;;;;9.82;69.29;102083.34;4862702;29;20041;-73
2023/06/02 02:25:07;;;;;;;11.90;3.95;;;;;;;9.79;70.22;102079.84;4878570;29;20033;-73
2023/06/02 02:27:33;;;;;;;11.82;4.13;;;;;;;9.81;69.77;102079.00;4862316;29;20037;-74
2023/06/02 02:29:59;;;;;;;14.10;4.70;;;;;;;9.83;69.68;102084.25;4862506;29;20478;-73
2023/06/02 02:32:24;;;;;;;17.08;5.32;;;;;;;9.82;69.87;102080.72;4827589;29;1144645;-73
2023/06/02 02:34:49;;;;;;;11.65;4.13;;;;;;;9.81;69.99;102079.00;4863880;29;20411;-73
2023/06/02 02:37:16;;;;;;;11.35;4.47;;;;;;;9.83;69.50;102077.25;4863513;29;20218;-73
2023/06/02 02:39:42;;;;;;;12.27;4.30;;;;;;;9.84;69.52;102079.03;4876040;29;20033;-73
2023/06/02 02:42:07;;;;;;;14.48;4.40;;;;;;;9.82;69.27;102088.59;4875822;29;20056;-73
2023/06/02 02:44:33;;;;;;;11.82;4.13;;;;;;;9.83;69.63;102084.25;4849101;29;20112;-73
2023/06/02 02:46:58;;;;;;;14.52;4.75;;;;;;;9.81;70.02;102075.50;4845197;29;20375;-72
2023/06/02 02:49:24;;;;;;;14.05;4.47;;;;;;;9.80;69.95;102076.38;4845420;29;20045;-73
2023/06/02 02:51:50;;;;;;;14.75;4.40;;;;;;;9.84;70.06;102072.91;4860286;29;20037;-73
2023/06/02 02:54:16;;;;;;;12.48;4.40;;;;;;;9.78;70.53;102073.69;4860382;29;20041;-75
2023/06/02 02:56:41;;;;;;;14.05;4.65;;;;;;;9.80;70.18;102072.00;4860013;29;20120;-73
2023/06/02 02:59:07;;;;;;;12.88;5.25;;;;;;;9.79;69.66;102072.84;4862256;29;20127;-73
2023/06/02 03:01:32;;;;;;;16.90;5.03;;;;;;;9.76;70.82;102078.06;4863285;29;20036;-73
2023/06/02 03:03:58;;;;;;;17.00;5.53;;;;;;;9.76;70.52;102074.56;4860178;29;20475;-73
2023/06/02 03:06:31;;;;;;;13.45;5.07;;;;;;;9.76;70.33;102074.56;4875306;29;20474;-73
2023/06/02 03:08:59;;;;;;;18.65;5.13;;;;;;;9.71;70.33;102072.78;4845674;29;20478;-73
2023/06/02 03:11:24;;;;;;;16.15;4.53;;;;;;;9.69;71.28;102084.94;4860031;29;20045;-73
2023/06/02 03:13:50;;;;;;;15.55;5.10;;;;;;;9.67;71.08;102083.19;4861824;29;20471;-74
2023/06/02 03:16:16;;;;;;;10.73;4.22;;;;;;;9.62;71.14;102087.50;4829330;29;20037;-74
2023/06/02 03:18:42;;;;;;;15.38;4.40;;;;;;;9.63;70.38;102090.13;4844655;29;20482;-74
2023/06/02 03:21:07;;;;;;;11.82;4.22;;;;;;;9.56;70.47;102093.53;4859491;29;20025;-73
2023/06/02 03:23:33;;;;;;;15.85;4.30;;;;;;;9.56;69.76;102093.53;4844602;29;20394;-74
2023/06/02 03:26:00;;;;;;;12.50;4.22;;;;;;;9.57;69.90;102091.78;4861806;29;20568;-73
2023/06/02 03:28:25;;;;;;;13.73;4.22;;;;;;;9.51;69.96;102100.41;4878149;29;20413;-73
2023/06/02 03:30:51;;;;;;;17.27;4.53;;;;;;;9.49;69.39;102092.56;4863037;29;20040;-72
2023/06/02 03:33:16;;;;;;;14.32;4.15;;;;;;;9.51;69.57;102095.19;4862665;29;20049;-72
2023/06/02 03:35:42;;;;;;;10.02;4.30;;;;;;;9.44;70.04;102093.34;4862431;29;20044;-73
2023/06/02 03:38:07;;;;;;;14.20;4.10;;;;;;;9.46;69.79;102091.66;4961974;23;20065;-71
2023/06/02 03:40:36;;;;;;;13.85;4.57;;;;;;;9.47;69.60;102098.66;4959222;23;20050;-73
2023/06/02 03:45:26;;;;;;;12.25;4.03;;;;;;;9.39;69.86;102101.16;5190990;23;20042;-72
2023/06/02 03:47:52;;;;;;;13.77;4.68;;;;;;;9.37;70.07;102097.66;4903814;23;20050;-70
2023/06/02 03:50:17;;;;;;;14.30;4.75;;;;;;;9.37;70.51;102100.25;5247620;23;20535;-70
2023/06/02 03:52:43;;;;;;;11.77;4.10;;;;;;;9.41;70.06;102101.16;5477328;23;20064;-70
2023/06/02 03:55:08;;;;;;;13.55;4.45;;;;;;;9.36;70.03;102095.88;5199069;23;20457;-72
2023/06/02 03:57:34;;;;;;;15.73;4.43;;;;;;;9.36;70.24;102101.97;5163744;23;20374;-70
2023/06/02 04:02:27;;;;;;;17.00;4.53;;;;;;;9.35;70.52;102105.47;5040634;23;20056;-71
2023/06/02 04:07:20;;;;;;;11.27;4.07;;;;;;;9.42;69.89;102109.03;5298388;23;20035;-71
2023/06/02 04:09:45;;;;;;;13.68;4.90;;;;;;;9.40;70.23;102110.75;5038087;23;20359;-70
2023/06/02 04:12:11;;;;;;;13.25;4.13;;;;;;;9.40;70.07;102117.75;5146629;23;20049;-71
2023/06/02 04:14:37;;;;;;;10.25;4.13;;;;;;;9.39;70.01;102115.97;5061344;23;20052;-72
2023/06/02 04:19:37;;;;;;;15.48;4.50;;;;;;;9.35;70.56;102105.47;5053380;23;20031;-72
2023/06/02 04:22:03;;;;;;;12.23;4.88;;;;;;;9.40;69.91;102122.97;4985728;23;20059;-71
2023/06/02 04:24:29;;;;;;;13.77;4.22;;;;;;;9.36;70.61;102115.06;5048261;23;20147;-71
2023/06/02 04:26:54;;;;;;;13.95;4.50;;;;;;;9.38;70.60;102109.88;5019697;23;20513;-72
2023/06/02 04:29:20;;;;;;;10.65;3.75;;;;;;;9.36;70.69;102112.44;5015002;23;20046;-71
2023/06/02 04:31:53;;;;;;;11.82;3.90;;;;;;;9.31;70.47;102114.13;5129633;23;20460;-72
2023/06/02 04:34:19;;;;;;;12.88;4.10;;;;;;;9.34;69.70;102114.19;4842709;29;20520;-70
2023/06/02 04:36:45;;;;;;;9.27;3.50;;;;;;;9.33;69.14;102111.53;4834869;29;20037;-71
2023/06/02 04:39:29;;;;;;;10.55;3.47;;;;;;;9.35;68.88;102117.66;4846191;29;20132;-72
2023/06/02 04:41:57;;;;;;;11.20;3.38;;;;;;;9.31;68.93;102114.13;4840865;29;20095;-72
2023/06/02 04:44:23;;;;;;;11.00;3.72;;;;;;;9.33;68.37;102115.03;4840860;29;20049;-72
2023/06/02 04:46:49;;;;;;;13.63;3.83;;;;;;;9.29;68.52;102105.38;4841099;29;20509;-72
2023/06/02 04:49:15;;;;;;;12.88;3.70;;;;;;;9.32;67.95;102110.66;4840513;29;20042;-72
2023/06/02 04:51:41;;;;;;;13.77;3.70;;;;;;;9.36;68.08;102116.81;4840455;29;20048;-72
2023/06/02 04:54:07;;;;;;;9.13;3.35;;;;;;;9.34;68.45;102113.31;4855852;29;20128;-72
2023/06/02 04:56:32;;;;;;;10.30;3.17;;;;;;;9.31;68.84;102115.84;4835252;29;20398;-72
2023/06/02 04:58:58;;;;;;;12.05;3.28;;;;;;;9.28;68.20;102119.34;4855217;29;20037;-73
2023/06/02 05:01:23;;;;;;;12.10;3.13;;;;;;;9.28;68.45;102113.19;4858457;29;20557;-73
2023/06/02 05:03:48;;;;;;;11.68;3.28;;;;;;;9.28;68.72;102127.19;4837177;29;20044;-73
2023/06/02 05:06:14;;;;;;;10.57;3.63;;;;;;;9.39;68.83;102126.44;4850320;29;20075;-72
2023/06/02 05:08:39;;;;;;;11.32;3.20;;;;;;;9.39;68.85;102123.81;4847284;29;20064;-72
2023/06/02 05:11:08;;;;;;;15.13;3.78;;;;;;;9.35;69.04;102126.41;4825800;29;20038;-72
2023/06/02 05:13:33;;;;;;;10.40;3.22;;;;;;;9.41;68.77;102127.34;4857243;29;20096;-72
2023/06/02 05:15:59;;;;;;;14.68;4.10;;;;;;;9.44;68.79;102140.44;4865125;29;20431;-72
2023/06/02 05:18:24;;;;;;;13.88;3.67;;;;;;;9.43;69.15;102128.25;4839687;29;20049;-73
2023/06/02 05:20:52;;;;;;;9.50;3.63;;;;;;;9.48;68.63;102124.84;4812772;29;20037;-72
2023/06/02 05:23:18;;;;;;;14.48;3.88;;;;;;;9.45;68.64;102127.41;4814035;29;20034;-74
2023/06/02 05:25:43;;;;;;;12.23;3.67;;;;;;;9.56;69.36;102124.94;4827747;29;20550;-73
2023/06/02 05:28:08;;;;;;;15.00;3.65;;;;;;;9.53;69.54;102132.75;4843389;29;20519;-72
2023/06/02 05:30:37;;;;;;;17.52;4.25;;;;;;;9.61;69.12;102128.50;4831514;29;20036;-73
2023/06/02 05:33:02;;;;;;;16.60;3.90;;;;;;;9.60;68.91;102133.72;4848690;29;20065;-73
2023/06/02 05:35:28;;;;;;;16.23;3.50;;;;;;;9.64;69.37;102133.75;4829133;29;20037;-72
2023/06/02 05:37:53;;;;;;;17.20;4.50;;;;;;;9.64;68.22;102123.28;4827771;29;20211;-72
2023/06/02 05:40:19;;;;;;;10.93;3.65;;;;;;;9.68;68.64;102132.94;4837388;29;20029;-73
2023/06/02 05:42:44;;;;;;;12.02;3.38;;;;;;;9.64;68.72;102123.28;4861260;29;20029;-72
2023/06/02 05:45:10;;;;;;;7.55;3.03;;;;;;;9.69;68.57;102128.59;4855221;29;20041;-73
2023/06/02 05:47:35;;;;;;;11.52;3.65;;;;;;;9.70;69.02;102133.84;4827775;29;20555;-73
2023/06/02 05:50:01;;;;;;;13.60;3.67;;;;;;;9.73;68.27;102135.63;4828021;29;20037;-73
2023/06/02 05:52:26;;;;;;;9.90;3.20;;;;;;;9.78;68.59;102130.44;4812687;29;20403;-73
2023/06/02 05:54:52;;;;;;;11.25;3.40;;;;;;;9.73;67.73;102134.75;4828056;29;20509;-72
2023/06/02 05:57:18;;;;;;;15.07;3.33;;;;;;;9.75;67.87;102140.88;4827084;29;20038;-73
2023/06/02 05:59:45;;;;;;;10.35;3.42;;;;;;;9.70;68.40;102139.06;4834754;29;20106;-72
2023/06/02 06:02:11;;;;;;;11.05;3.63;;;;;;;9.65;68.58;102140.72;4842288;29;20121;-73
2023/06/02 06:04:36;;;;;;;15.35;3.72;;;;;;;9.60;68.36;102134.56;4843083;29;20121;-74
2023/06/02 06:07:02;;;;;;;11.40;3.65;;;;;;;9.63;68.47;102142.47;4842843;29;20052;-72
2023/06/02 06:09:28;;;;;;;9.55;3.10;;;;;;;9.69;68.71;102136.44;4837479;29;20050;-73
2023/06/02 06:11:53;;;;;;;11.73;3.33;;;;;;;9.62;68.48;102135.47;4860743;29;20030;-72
2023/06/02 06:14:19;;;;;;;12.15;3.58;;;;;;;9.64;68.45;102127.63;4852002;29;20551;-73
2023/06/02 06:16:44;;;;;;;15.13;3.88;;;;;;;9.62;68.50;102134.59;4812008;29;20041;-72
2023/06/02 06:19:11;;;;;;;14.35;3.72;;;;;;;9.61;68.21;102138.06;4834165;29;20037;-72
2023/06/02 06:21:38;;;;;;;12.57;3.58;;;;;;;9.67;68.69;102133.78;4851382;29;20037;-72
2023/06/02 06:24:07;;;;;;;11.45;3.42;;;;;;;9.63;68.12;102136.38;4845077;29;20104;-72
2023/06/02 06:26:34;;;;;;;11.88;3.30;;;;;;;9.64;67.30;102138.09;4844505;29;20030;-71
2023/06/02 06:28:59;;;;;;;12.55;3.58;;;;;;;9.63;67.42;102138.97;4838488;29;20489;-72
2023/06/02 06:31:28;;;;;;;12.88;3.38;;;;;;;9.71;68.73;102138.22;4856493;29;20049;-71
2023/06/02 06:33:53;;;;;;;10.93;2.85;;;;;;;9.73;67.56;102142.59;4835630;29;20120;-71
2023/06/02 06:36:19;;;;;;;14.75;3.42;;;;;;;9.73;66.49;102146.09;4859830;29;20037;-71
2023/06/02 06:38:44;;;;;;;14.25;3.28;;;;;;;9.78;66.54;102140.91;4860422;29;20504;-71
2023/06/02 06:41:09;;;;;;;15.63;3.78;;;;;;;9.81;66.64;102140.94;4825736;29;20036;-72
2023/06/02 06:43:35;;;;;;;10.05;3.08;;;;;;;9.82;66.19;102155.78;4849090;29;20485;-72
2023/06/02 06:46:00;;;;;;;13.60;4.10;;;;;;;9.79;65.63;102161.00;4857363;29;20041;-71
2023/06/02 06:48:27;;;;;;;16.67;4.10;;;;;;;9.80;66.59;102152.28;4826950;29;20498;-71
2023/06/02 06:50:53;;;;;;;12.45;3.47;;;;;;;9.90;66.71;102148.91;4826727;29;20053;-71
2023/06/02 06:53:18;;;;;;;8.18;3.33;;;;;;;9.94;66.59;102152.44;4827027;29;20499;-71
2023/06/02 06:55:45;;;;;;;12.73;3.85;;;;;;;9.94;65.77;102145.47;4826520;29;20050;-72
2023/06/02 06:58:10;;;;;;;11.70;3.15;;;;;;;10.02;65.20;102140.31;4849219;29;20037;-71
2023/06/02 07:00:36;;;;;;;14.95;3.75;;;;;;;10.15;66.00;102152.69;4843748;29;20101;-71
2023/06/02 07:03:01;;;;;;;13.70;3.35;;;;;;;10.18;65.41;102146.59;4848161;29;20034;-71
2023/06/02 07:05:28;;;;;;;10.25;3.17;;;;;;;10.28;65.50;102140.59;4841832;29;20034;-72
2023/06/02 07:07:54;;;;;;;11.93;3.28;;;;;;;10.33;66.13;102131.06;4868126;29;20112;-71
2023/06/02 07:10:20;;;;;;;11.18;3.25;;;;;;;10.48;66.28;102139.97;4846337;29;20469;-71
2023/06/02 07:12:46;;;;;;;15.55;3.47;;;;;;;10.41;63.83;102139.00;4842106;29;20034;-72
2023/06/02 07:15:12;;;;;;;14.40;3.38;;;;;;;10.43;64.15;102144.25;4826178;29;20060;-71
2023/06/02 07:17:39;;;;;;;11.90;3.45;;;;;;;10.57;65.00;102145.25;4842038;29;20029;-72
2023/06/02 07:20:11;;;;;;;13.02;3.78;;;;;;;10.60;64.64;102145.28;4841842;29;20034;-71
2023/06/02 07:22:37;;;;;;;13.38;3.35;;;;;;;10.75;64.73;102144.56;4841150;29;20117;-71
2023/06/02 07:25:04;;;;;;;18.15;4.10;;;;;;;10.73;64.51;102147.19;4843284;29;20041;-71
2023/06/02 07:27:30;;;;;;;14.88;3.45;;;;;;;10.79;64.21;102161.19;4869488;29;20125;-72
2023/06/02 07:29:57;;;;;;;11.35;3.17;;;;;;;10.89;64.30;102157.81;4861118;29;20030;-73
2023/06/02 07:32:22;;;;;;;13.07;3.22;;;;;;;10.79;61.81;102156.84;4845104;29;20067;-74
2023/06/02 07:34:48;;;;;;;12.90;3.80;;;;;;;10.85;61.97;102161.25;4856015;29;20046;-73
2023/06/02 07:37:14;;;;;;;11.85;3.13;;;;;;;10.96;63.27;102159.59;4844044;29;20131;-73
2023/06/02 07:39:40;;;;;;;13.63;3.28;;;;;;;11.03;62.91;102161.41;4856520;29;20036;-73
2023/06/02 07:42:06;;;;;;;9.30;2.70;;;;;;;11.05;62.21;102164.91;4832201;29;20431;-74
2023/06/02 07:44:31;;;;;;;14.82;3.45;;;;;;;11.17;62.17;102160.63;4841749;29;20479;-73
2023/06/02 07:46:57;;;;;;;14.13;3.42;;;;;;;11.19;62.27;102157.16;4855668;29;20069;-73
2023/06/02 07:49:22;;;;;;;11.23;3.20;;;;;;;11.22;62.07;102156.25;4875167;29;20033;-73
2023/06/02 07:51:48;;;;;;;8.45;3.30;;;;;;;11.22;62.50;102146.66;4843788;29;20185;-73
2023/06/02 07:54:13;;;;;;;14.73;3.22;;;;;;;11.27;62.91;102149.31;4874456;29;20030;-74
2023/06/02 07:56:39;;;;;;;11.43;2.70;;;;;;;11.35;61.76;102147.63;4843637;29;20029;-73
2023/06/02 07:59:04;;;;;;;12.23;3.13;;;;;;;11.37;62.33;102156.38;4841935;29;20043;-74
2023/06/02 08:01:30;;;;;;;12.98;3.40;;;;;;;11.44;62.73;102159.91;4859293;29;20029;-73
2023/06/02 08:03:55;;;;;;;12.48;3.15;;;;;;;11.46;61.97;102152.03;4828631;29;20483;-74
2023/06/02 08:06:21;;;;;;;11.75;2.92;;;;;;;11.51;61.38;102152.97;4825319;29;20551;-73
2023/06/02 08:08:46;;;;;;;11.30;3.00;;;;;;;11.56;61.78;102151.22;4840945;29;20042;-73
2023/06/02 08:11:12;;;;;;;12.93;3.22;;;;;;;11.74;61.76;102153.94;4825643;29;20045;-74
2023/06/02 08:13:38;;;;;;;10.20;3.70;;;;;;;11.84;61.81;102151.34;4840366;29;20030;-73
2023/06/02 08:16:04;;;;;;;13.68;3.30;;;;;;;12.01;63.14;102154.97;4843418;29;20128;-73
2023/06/02 08:18:29;;;;;;;21.02;3.95;;;;;;;12.11;60.97;102142.69;4871713;29;20032;-73
2023/06/02 08:20:55;;;;;;;14.35;4.07;;;;;;;12.16;60.13;102140.13;4855532;29;20044;-73
2023/06/02 08:23:21;;;;;;;10.93;3.35;;;;;;;12.24;60.03;102143.59;4856604;29;20029;-73
2023/06/02 08:25:47;;;;;;;16.95;3.40;;;;;;;12.22;60.40;102148.00;4861769;29;20092;-74
2023/06/02 08:28:13;;;;;;;12.43;3.30;;;;;;;12.44;60.20;102148.91;4861856;29;20041;-74
2023/06/02 08:30:42;;;;;;;12.27;2.95;;;;;;;12.53;59.07;102148.03;4845036;29;20038;-74
2023/06/02 08:33:08;;;;;;;12.10;2.72;;;;;;;12.77;60.25;102150.72;4839153;29;20057;-70
2023/06/02 08:35:36;;;;;;;13.30;3.30;;;;;;;12.82;58.55;102150.69;4859760;29;20037;-71
2023/06/02 08:38:07;;;;;;;12.23;3.13;;;;;;;12.93;58.30;102148.03;4843101;29;20139;-71
2023/06/02 08:40:38;;;;;;;14.02;3.40;;;;;;;13.05;59.15;102149.81;4858962;29;20029;-71
2023/06/02 08:43:09;;;;;;;13.32;3.00;;;;;;;13.26;59.05;102152.41;4858407;29;20088;-71
2023/06/02 08:45:35;;;;;;;14.02;3.70;;;;;;;13.32;56.41;102154.16;4858929;29;20029;-72
2023/06/02 08:48:05;;;;;;;14.45;3.28;;;;;;;13.42;57.56;102145.38;4831401;29;20034;-71
2023/06/02 08:50:35;;;;;;;13.70;4.22;;;;;;;13.75;57.08;102135.63;4858439;29;20040;-71
2023/06/02 08:53:03;;;;;;;14.30;3.43;;;;;;;13.83;56.88;102136.47;4874023;29;20394;-71
2023/06/02 08:55:29;;;;;;;11.27;3.10;;;;;;;13.97;58.13;102133.75;4857981;29;20064;-72
2023/06/02 08:57:55;;;;;;;16.17;3.90;;;;;;;14.14;55.62;102143.31;4843168;29;20458;-72
2023/06/02 09:00:21;;;;;;;13.50;3.63;;;;;;;14.25;56.27;102141.50;4854577;29;20159;-72
2023/06/02 09:02:47;;;;;;;18.25;3.88;;;;;;;14.43;54.07;102139.63;4840338;29;20037;-72
2023/06/02 09:05:16;;;;;;;11.85;3.30;;;;;;;14.63;55.60;102142.16;4840383;29;20103;-72
2023/06/02 09:07:43;;;;;;;17.60;3.70;;;;;;;14.48;52.38;102136.06;4870082;29;20048;-72
2023/06/02 09:10:08;;;;;;;14.07;3.53;;;;;;;14.48;54.12;102138.72;4859085;29;20382;-73
2023/06/02 09:12:50;;;;;;;13.98;3.50;;;;;;;14.54;53.40;102136.00;4857903;29;20041;-73
2023/06/02 09:15:15;;;;;;;12.48;3.08;;;;;;;14.56;55.35;102136.88;4855450;29;20033;-74
2023/06/02 09:17:41;;;;;;;15.52;3.95;;;;;;;14.81;54.04;102138.47;4858310;29;20037;-74
2023/06/02 09:20:10;;;;;;;11.05;3.45;;;;;;;15.04;53.57;102138.25;4843314;29;20049;-73
2023/06/02 09:22:53;;;;;;;15.00;3.40;;;;;;;14.84;53.25;102141.06;4824542;29;20087;-74
2023/06/02 09:25:29;;;;;;;14.98;3.30;;;;;;;14.84;54.47;102147.25;4842195;29;20771;-73
2023/06/02 09:27:59;;;;;;;9.68;2.67;;;;;;;14.82;52.61;102137.59;4855150;29;20026;-73
2023/06/02 09:30:25;;;;;;;11.40;3.45;;;;;;;14.72;53.39;102134.16;4830343;29;20037;-73
2023/06/02 09:32:58;;;;;;;13.60;3.15;;;;;;;14.87;53.37;102144.56;4842203;29;20406;-73
2023/06/02 09:35:35;;;;;;;15.60;3.53;;;;;;;14.95;53.36;102135.72;4843970;29;20394;-74
2023/06/02 09:38:05;;;;;;;12.00;3.25;;;;;;;14.99;53.55;102138.31;4857682;29;20033;-73
2023/06/02 09:40:33;;;;;;;14.00;3.70;;;;;;;15.03;52.48;102131.25;4842961;29;20097;-74
2023/06/02 09:43:00;;;;;;;14.32;3.85;;;;;;;15.16;53.16;102127.59;4857914;29;20045;-72
2023/06/02 09:45:26;;;;;;;15.30;4.32;;;;;;;15.25;54.48;102138.03;4842984;29;20030;-72
2023/06/02 09:47:51;;;;;;;12.20;3.35;;;;;;;15.08;52.81;102134.69;4842841;29;20048;-71
2023/06/02 09:50:36;;;;;;;10.63;3.53;;;;;;;15.19;53.96;102143.38;4839563;29;20044;-71
2023/06/02 09:53:03;;;;;;;13.95;3.40;;;;;;;15.21;52.80;102130.16;4854690;29;20065;-72
2023/06/02 09:55:31;;;;;;;9.82;3.25;;;;;;;15.15;55.67;102135.53;4839561;29;20044;-71
2023/06/02 09:57:58;;;;;;;12.38;2.78;;;;;;;15.14;53.52;102139.94;4843514;29;20044;-72
2023/06/02 10:00:24;;;;;;;11.48;3.30;;;;;;;15.17;52.91;102139.00;4846210;29;20040;-71
2023/06/02 10:02:50;;;;;;;14.40;3.85;;;;;;;14.85;53.32;102137.56;4860134;29;20065;-74
2023/06/02 10:05:17;;;;;;;11.52;4.00;;;;;;;14.80;54.26;102140.25;4843040;29;20432;-74
2023/06/02 10:07:56;;;;;;;11.70;3.00;;;;;;;14.75;54.99;102134.13;4853503;29;20037;-74
2023/06/02 10:10:38;;;;;;;11.23;3.57;;;;;;;14.90;55.72;102144.53;4861449;29;20520;-73
2023/06/02 10:13:26;;;;;;;12.98;3.65;;;;;;;14.92;54.03;102138.38;4860854;29;20335;-73
2023/06/02 10:16:15;;;;;;;9.70;3.55;;;;;;;15.04;56.12;102138.25;4876454;29;20052;-71
2023/06/02 10:19:16;;;;;;;12.73;4.05;;;;;;;15.19;55.85;102137.25;4876917;29;20029;-72
2023/06/02 10:21:48;;;;;;;13.82;4.20;;;;;;;15.40;55.38;102125.53;4852538;29;20482;-72
2023/06/02 10:24:32;;;;;;;14.00;3.75;;;;;;;15.38;54.58;102133.50;4853111;29;20037;-71
2023/06/02 10:27:00;;;;;;;15.25;4.22;;;;;;;15.50;54.18;102137.78;4864743;29;20093;-72
2023/06/02 10:29:28;;;;;;;12.85;3.38;;;;;;;15.45;54.94;102129.03;4864672;29;20111;-71
2023/06/02 10:31:53;;;;;;;11.70;3.95;;;;;;;15.48;54.76;102131.63;4830570;29;20044;-72
2023/06/02 10:34:34;;;;;;;11.40;3.75;;;;;;;15.58;53.94;102127.13;4856976;29;20087;-71
2023/06/02 10:37:00;;;;;;;16.40;4.10;;;;;;;15.62;55.55;102125.31;4858525;29;20037;-71
2023/06/02 10:39:40;;;;;;;14.80;3.80;;;;;;;15.62;54.46;102135.91;4868914;29;20045;-71
2023/06/02 10:42:12;;;;;;;10.80;4.07;;;;;;;15.55;55.39;102130.66;4845264;29;20046;-73
2023/06/02 10:44:38;;;;;;;10.75;3.78;;;;;;;15.56;53.82;102139.47;4857488;29;20026;-71
2023/06/02 10:47:18;;;;;;;12.57;3.95;;;;;;;15.57;54.96;102128.88;4850452;29;20474;-72
2023/06/02 10:50:10;;;;;;;12.80;4.03;;;;;;;15.73;54.32;102123.38;4857461;29;20037;-71
2023/06/02 10:53:00;;;;;;;13.70;3.90;;;;;;;15.65;55.26;102125.28;4837250;29;20079;-71
2023/06/02 10:55:30;;;;;;;12.27;4.03;;;;;;;15.68;55.55;102128.75;4878946;29;20061;-72
2023/06/02 10:58:06;;;;;;;10.93;4.22;;;;;;;16.01;56.01;102123.06;4851940;29;20152;-71
2023/06/02 11:00:32;;;;;;;14.73;4.28;;;;;;;15.99;54.65;102116.91;4851297;29;20049;-73
2023/06/02 11:02:59;;;;;;;16.10;4.28;;;;;;;16.20;55.18;102113.97;4867078;29;20120;-73
2023/06/02 11:05:26;;;;;;;13.20;4.05;;;;;;;16.13;55.00;102122.03;4848332;29;20033;-72
2023/06/02 11:08:14;;;;;;;9.80;3.83;;;;;;;16.19;55.40;102125.47;4862551;29;20037;-72
2023/06/02 11:10:43;;;;;;;12.93;4.63;;;;;;;16.05;53.04;102123.00;4859974;29;20140;-74
2023/06/02 11:13:09;;;;;;;15.65;4.40;;;;;;;15.94;53.17;102122.28;4859693;29;20136;-72
2023/06/02 11:15:35;;;;;;;11.77;3.60;;;;;;;15.90;55.63;102116.16;4877205;29;20029;-71
2023/06/02 11:18:21;;;;;;;12.38;3.50;;;;;;;16.04;54.38;102123.03;4857519;29;20072;-72
2023/06/02 11:20:51;;;;;;;12.02;4.63;;;;;;;16.01;53.21;102125.72;4856833;29;20036;-74
2023/06/02 11:23:20;;;;;;;12.48;4.00;;;;;;;16.01;55.57;102123.94;4841891;29;20026;-71
2023/06/02 11:26:02;;;;;;;13.15;4.10;;;;;;;16.01;53.68;102121.28;4841504;29;20436;-71
2023/06/02 11:28:29;;;;;;;11.43;4.18;;;;;;;16.03;54.59;102123.91;4859298;29;20109;-71
2023/06/02 11:31:08;;;;;;;9.98;4.35;;;;;;;16.19;56.22;102114.00;4829612;29;20079;-74
2023/06/02 11:33:34;;;;;;;13.05;4.45;;;;;;;16.19;53.89;102122.81;4860080;29;20068;-72
2023/06/02 11:36:05;;;;;;;15.18;4.63;;;;;;;16.29;54.30;102115.59;4840866;29;20029;-73